Time;durP1;ratioP1;P1;durP2;ratioP2;P2;SDS_P1;SDS_P2;PMS_P1;PMS_P2;Temp;Humidity;BMP_temperature;BMP_pressure;BME280_temperature;BME280_humidity;BME280_pressure;Samples;Min_cycle;Max_cycle;Signal;HPM_P1;HPM_P2
2022/09/18 00:01:59;;;;;;;;;;;;;;;13.70;99.36;101545.38;5062879;28;19928;-33
2022/09/18 00:04:27;;;;;;;;;;;;;;;13.64;100.00;101529.75;5050793;28;20348;-32
2022/09/18 00:06:54;;;;;;;;;;;;;;;13.57;100.00;101521.75;5061938;28;19936;-34
2022/09/18 00:09:22;;;;;;;;;;;;;;;13.50;100.00;101521.28;5057515;28;19947;-32
2022/09/18 00:11:50;;;;;;;;;;;;;;;13.44;100.00;101514.06;5061923;28;19978;-32
2022/09/18 00:14:20;;;;;;;;;;;;;;;13.37;100.00;101517.28;5059609;28;20344;-33
2022/09/18 00:16:48;;;;;;;;;;;;;;;13.30;100.00;101519.59;5060554;28;20389;-32
2022/09/18 00:19:15;;;;;;;;;;;;;;;13.20;100.00;101508.53;5060852;28;19941;-33
2022/09/18 00:21:44;;;;;;;;;;;;;;;13.16;99.09;101524.28;5059509;28;20277;-32
2022/09/18 00:24:12;;;;;;;;;;;;;;;13.17;97.55;101519.53;5065786;28;19928;-32
2022/09/18 00:26:39;;;;;;;;;;;;;;;13.19;96.56;101514.47;5072695;28;19932;-33
2022/09/18 00:29:07;;;;;;;;;;;;;;;13.20;94.24;101513.28;5097130;28;19924;-32
2022/09/18 00:31:36;;;;;;;;;;;;;;;13.23;92.72;101521.94;5072549;28;20313;-32
2022/09/18 00:34:06;;;;;;;;;;;;;;;13.28;91.55;101521.88;5061872;28;19928;-33
2022/09/18 00:36:34;;;;;;;;;;;;;;;13.32;91.78;101503.31;5073242;28;20031;-33
2022/09/18 00:39:02;;;;;;;;;;;;;;;13.37;92.36;101522.06;5062655;28;19993;-34
2022/09/18 00:41:31;;;;;;;;;;;;;;;13.42;93.41;101522.78;5074300;28;19970;-33
2022/09/18 00:44:13;;;;;;;;;;;;;;;13.47;94.34;101523.84;5062226;28;19932;-34
2022/09/18 00:46:44;;;;;;;;;;;;;;;13.50;94.56;101517.66;5073229;28;19928;-33
2022/09/18 00:49:14;;;;;;;;;;;;;;;13.54;94.89;101519.56;5064300;28;19990;-33
2022/09/18 00:51:43;;;;;;;;;;;;;;;13.59;95.03;101507.44;5074533;28;19924;-35
2022/09/18 00:54:14;;;;;;;;;;;;;;;13.61;94.62;101499.53;5065873;28;19974;-32
2022/09/18 00:56:42;;;;;;;;;;;;;;;13.61;93.59;101517.19;5053143;28;20334;-33
2022/09/18 00:59:12;;;;;;;;;;;;;;;13.65;92.63;101504.22;5065541;28;19925;-32
2022/09/18 01:01:40;;;;;;;;;;;;;;;13.66;91.59;101510.66;5054399;28;19925;-33
2022/09/18 01:04:10;;;;;;;;;;;;;;;13.70;92.29;101512.56;5066330;28;19934;-32
2022/09/18 01:06:42;;;;;;;;;;;;;;;13.73;91.01;101503.53;5053345;28;20049;-32
2022/09/18 01:09:14;;;;;;;;;;;;;;;13.73;89.91;101506.34;5058257;28;19929;-33
2022/09/18 01:11:57;;;;;;;;;;;;;;;13.74;87.51;101508.03;5054044;28;20382;-32
2022/09/18 01:14:30;;;;;;;;;;;;;;;13.76;87.50;101502.94;5072517;28;19932;-33
2022/09/18 01:17:02;;;;;;;;;;;;;;;13.78;87.66;101499.84;5074314;28;20396;-32
2022/09/18 01:19:48;;;;;;;;;;;;;;;13.79;87.63;101507.91;5062859;28;20348;-32
2022/09/18 01:22:23;;;;;;;;;;;;;;;13.83;89.54;101502.53;5059317;28;19924;-32
2022/09/18 01:24:58;;;;;;;;;;;;;;;13.87;92.60;101505.56;5058155;28;19925;-33
2022/09/18 01:27:30;;;;;;;;;;;;;;;13.86;94.23;101501.94;5073199;28;20314;-33
2022/09/18 01:30:02;;;;;;;;;;;;;;;13.84;94.65;101503.38;5068791;28;19925;-34
2022/09/18 01:32:32;;;;;;;;;;;;;;;13.80;94.75;101503.97;5053716;28;19929;-32
2022/09/18 01:35:03;;;;;;;;;;;;;;;13.77;95.23;101510.22;5083319;28;19925;-35
2022/09/18 01:37:48;;;;;;;;;;;;;;;13.74;95.67;101507.19;5069015;28;20416;-32
2022/09/18 01:40:20;;;;;;;;;;;;;;;13.71;95.24;101503.00;5057570;28;20333;-33
2022/09/18 01:42:49;;;;;;;;;;;;;;;13.69;94.79;101505.28;5067832;28;19932;-33
2022/09/18 01:45:20;;;;;;;;;;;;;;;13.67;94.45;101490.72;5083447;28;19943;-33
2022/09/18 01:47:53;;;;;;;;;;;;;;;13.67;93.81;101498.31;5088980;28;19931;-34
2022/09/18 01:50:21;;;;;;;;;;;;;;;13.69;94.89;101502.47;5068254;28;19928;-37
2022/09/18 01:52:53;;;;;;;;;;;;;;;13.72;96.78;101501.03;5055679;28;19955;-33
2022/09/18 01:55:23;;;;;;;;;;;;;;;13.70;98.15;101481.72;5058933;28;19924;-32
2022/09/18 01:57:53;;;;;;;;;;;;;;;13.68;99.52;101492.41;5068630;28;19929;-33
2022/09/18 02:00:23;;;;;;;;;;;;;;;13.64;99.83;101488.53;5091898;28;19966;-33
2022/09/18 02:02:53;;;;;;;;;;;;;;;13.56;97.51;101489.25;5057202;28;20023;-33
2022/09/18 02:05:27;;;;;;;;;;;;;;;13.52;96.72;101488.19;5057487;28;19942;-34
2022/09/18 02:08:01;;;;;;;;;;;;;;;13.52;97.19;101476.97;5057345;28;20397;-35
2022/09/18 02:10:30;;;;;;;;;;;;;;;13.50;96.16;101479.22;5056992;28;20393;-33
2022/09/18 02:12:59;;;;;;;;;;;;;;;13.48;94.64;101478.69;5058405;28;20390;-33
2022/09/18 02:15:34;;;;;;;;;;;;;;;13.49;94.31;101466.34;5054719;28;19928;-33
2022/09/18 02:18:12;;;;;;;;;;;;;;;13.49;94.18;101469.16;5067291;28;20286;-33
2022/09/18 02:20:42;;;;;;;;;;;;;;;13.53;94.44;101475.00;5056998;28;19928;-33
2022/09/18 02:23:10;;;;;;;;;;;;;;;13.57;93.70;101473.25;5070926;28;19935;-34
2022/09/18 02:25:40;;;;;;;;;;;;;;;13.54;90.27;101469.06;5069934;28;19928;-33
2022/09/18 02:28:09;;;;;;;;;;;;;;;13.57;88.94;101446.03;5062843;28;20377;-34
2022/09/18 02:30:38;;;;;;;;;;;;;;;13.60;87.94;101455.78;5068403;28;19955;-33
2022/09/18 02:33:21;;;;;;;;;;;;;;;13.61;88.18;101455.47;5071305;28;19924;-35
2022/09/18 02:35:53;;;;;;;;;;;;;;;13.67;88.83;101467.47;5088000;28;20305;-33
2022/09/18 02:38:25;;;;;;;;;;;;;;;13.69;89.09;101468.81;5060734;28;19928;-35
2022/09/18 02:40:59;;;;;;;;;;;;;;;13.70;89.61;101462.09;5087793;28;20297;-36
2022/09/18 02:43:36;;;;;;;;;;;;;;;13.72;89.33;101464.59;5087759;28;19928;-33
2022/09/18 02:46:12;;;;;;;;;;;;;;;13.74;89.95;101463.13;5068787;28;19978;-33
2022/09/18 02:48:52;;;;;;;;;;;;;;;13.77;90.51;101467.31;5058146;28;19925;-33
2022/09/18 02:51:22;;;;;;;;;;;;;;;13.78;89.41;101457.75;5070461;28;20340;-33
2022/09/18 02:53:54;;;;;;;;;;;;;;;13.77;86.98;101456.09;5055708;28;19978;-33
2022/09/18 02:56:27;;;;;;;;;;;;;;;13.78;85.74;101463.38;5085735;28;19928;-35
2022/09/18 02:58:56;;;;;;;;;;;;;;;13.78;85.95;101455.78;5094806;28;20294;-32
2022/09/18 03:01:27;;;;;;;;;;;;;;;13.80;85.31;101456.28;5052036;28;20271;-33
2022/09/18 03:04:01;;;;;;;;;;;;;;;13.82;85.36;101458.78;5061607;28;20344;-32
2022/09/18 03:06:38;;;;;;;;;;;;;;;13.85;87.25;101452.56;5051274;28;19964;-33
2022/09/18 03:09:06;;;;;;;;;;;;;;;13.88;88.11;101457.56;5061757;28;19925;-32
2022/09/18 03:11:35;;;;;;;;;;;;;;;13.87;87.32;101452.25;5052654;28;19925;-33
2022/09/18 03:14:03;;;;;;;;;;;;;;;13.88;87.07;101451.13;5062013;28;20378;-32
2022/09/18 03:16:32;;;;;;;;;;;;;;;13.89;87.60;101447.19;5048742;28;19925;-32
2022/09/18 03:19:00;;;;;;;;;;;;;;;13.90;88.00;101451.66;5060576;28;19978;-32
2022/09/18 03:21:28;;;;;;;;;;;;;;;13.91;88.97;101445.75;5048681;28;20431;-32
2022/09/18 03:23:55;;;;;;;;;;;;;;;13.92;89.13;101452.19;5053432;28;19925;-35
2022/09/18 03:26:28;;;;;;;;;;;;;;;13.86;87.06;101443.00;5085417;28;19928;-32
2022/09/18 03:28:56;;;;;;;;;;;;;;;13.83;86.33;101432.41;5063783;28;19932;-36
2022/09/18 03:31:24;;;;;;;;;;;;;;;13.82;85.95;101447.56;5065677;28;19937;-32
2022/09/18 03:33:54;;;;;;;;;;;;;;;13.82;85.70;101435.50;5063905;28;20033;-33
2022/09/18 03:36:22;;;;;;;;;;;;;;;13.82;85.81;101441.94;5071693;28;19951;-32
2022/09/18 03:38:51;;;;;;;;;;;;;;;13.82;84.95;101439.16;5061126;28;20299;-32
2022/09/18 03:41:19;;;;;;;;;;;;;;;13.83;84.95;101431.56;5100178;28;19978;-32
2022/09/18 03:43:46;;;;;;;;;;;;;;;13.84;85.23;101434.06;5068587;28;19929;-33
2022/09/18 03:46:14;;;;;;;;;;;;;;;13.84;84.36;101428.47;5070186;28;19981;-33
2022/09/18 03:48:41;;;;;;;;;;;;;;;13.85;83.65;101430.13;5070557;28;19925;-32
2022/09/18 03:51:10;;;;;;;;;;;;;;;13.85;82.99;101429.28;5061791;28;19929;-34
2022/09/18 03:53:38;;;;;;;;;;;;;;;13.86;83.74;101431.78;5057912;28;19929;-33
2022/09/18 03:56:17;;;;;;;;;;;;;;;13.88;85.12;101423.91;5061456;28;19929;-36
2022/09/18 03:59:17;;;;;;;;;;;;;;;13.93;86.46;101422.97;5049272;28;19932;-39
2022/09/18 04:02:11;;;;;;;;;;;;;;;13.92;86.92;101422.16;5060037;28;20407;-36
2022/09/18 04:05:14;;;;;;;;;;;;;;;13.89;86.34;101425.56;5048097;28;20011;-37
2022/09/18 04:08:01;;;;;;;;;;;;;;;13.87;86.10;101425.03;5053705;28;19931;-35
2022/09/18 04:10:48;;;;;;;;;;;;;;;13.86;86.49;101428.97;5063165;28;19962;-38
2022/09/18 04:13:15;;;;;;;;;;;;;;;13.85;87.11;101426.47;5073905;28;20344;-38
2022/09/18 04:15:44;;;;;;;;;;;;;;;13.86;86.48;101428.16;5060794;28;19956;-32
2022/09/18 04:18:11;;;;;;;;;;;;;;;13.87;87.21;101430.66;5074087;28;20398;-32
2022/09/18 04:20:39;;;;;;;;;;;;;;;13.88;89.03;101435.13;5061172;28;19933;-33
2022/09/18 04:23:10;;;;;;;;;;;;;;;13.85;89.62;101430.13;5054662;28;19971;-32
2022/09/18 04:25:38;;;;;;;;;;;;;;;13.79;89.41;101432.19;5064052;28;20275;-33
2022/09/18 04:28:06;;;;;;;;;;;;;;;13.73;89.39;101427.81;5055535;28;19935;-33
2022/09/18 04:30:38;;;;;;;;;;;;;;;13.69;89.89;101417.50;5095679;28;19924;-35
2022/09/18 04:33:06;;;;;;;;;;;;;;;13.66;91.06;101418.94;5056371;28;19925;-36
2022/09/18 04:35:34;;;;;;;;;;;;;;;13.64;92.06;101421.22;5060341;28;19924;-37
2022/09/18 04:38:02;;;;;;;;;;;;;;;13.64;93.00;101431.59;5058652;28;19925;-36
2022/09/18 04:40:31;;;;;;;;;;;;;;;13.65;95.15;101425.69;5058375;28;19936;-35
2022/09/18 04:43:00;;;;;;;;;;;;;;;13.63;96.62;101427.13;5061123;28;19929;-37
2022/09/18 04:45:28;;;;;;;;;;;;;;;13.60;97.22;101417.34;5054709;28;20382;-35
2022/09/18 04:47:57;;;;;;;;;;;;;;;13.55;97.98;101427.84;5060308;28;20451;-32
2022/09/18 04:50:26;;;;;;;;;;;;;;;13.50;99.25;101423.16;5053687;28;19929;-38
2022/09/18 04:53:09;;;;;;;;;;;;;;;13.44;100.00;101408.38;5062625;28;20267;-33
2022/09/18 04:55:38;;;;;;;;;;;;;;;13.40;100.00;101407.31;5072389;28;19925;-32
2022/09/18 04:58:09;;;;;;;;;;;;;;;13.35;100.00;101400.97;5062404;28;19978;-34
2022/09/18 05:00:37;;;;;;;;;;;;;;;13.30;100.00;101407.50;5070421;28;19932;-33
2022/09/18 05:03:05;;;;;;;;;;;;;;;13.26;100.00;101403.63;5063036;28;19986;-33
2022/09/18 05:05:36;;;;;;;;;;;;;;;13.23;100.00;101412.63;5070670;28;19982;-32
2022/09/18 05:08:05;;;;;;;;;;;;;;;13.21;100.00;101409.28;5078283;28;19925;-33
2022/09/18 05:10:32;;;;;;;;;;;;;;;13.22;100.00;101413.78;5088673;28;19931;-33
2022/09/18 05:13:05;;;;;;;;;;;;;;;13.22;100.00;101418.53;5068538;28;19925;-33
2022/09/18 05:15:38;;;;;;;;;;;;;;;13.22;100.00;101413.78;5069914;28;19925;-33
2022/09/18 05:18:07;;;;;;;;;;;;;;;13.22;99.72;101421.34;5088328;28;19925;-32
2022/09/18 05:20:38;;;;;;;;;;;;;;;13.20;98.23;101429.22;5088557;28;19924;-35
2022/09/18 05:23:07;;;;;;;;;;;;;;;13.21;98.40;101454.13;5088583;28;19924;-32
2022/09/18 05:25:36;;;;;;;;;;;;;;;13.22;100.00;101450.19;5071696;28;19924;-32
2022/09/18 05:28:05;;;;;;;;;;;;;;;13.20;100.00;101441.25;5058347;28;19978;-33
2022/09/18 05:30:42;;;;;;;;;;;;;;;13.12;100.00;101444.72;5088790;28;19924;-34
2022/09/18 05:33:10;;;;;;;;;;;;;;;13.01;100.00;101444.03;5057586;28;20003;-32
2022/09/18 05:35:41;;;;;;;;;;;;;;;12.92;100.00;101443.03;5070825;28;20346;-35
2022/09/18 05:38:10;;;;;;;;;;;;;;;12.85;100.00;101438.94;5060366;28;20297;-35
2022/09/18 05:40:42;;;;;;;;;;;;;;;12.74;100.00;101432.66;5067181;28;19932;-33
2022/09/18 05:43:11;;;;;;;;;;;;;;;12.65;100.00;101426.88;5061833;28;19978;-35
2022/09/18 05:45:38;;;;;;;;;;;;;;;12.60;100.00;101437.28;5070202;28;19932;-33
2022/09/18 05:48:15;;;;;;;;;;;;;;;12.58;100.00;101440.41;5067373;28;19925;-33
2022/09/18 05:50:44;;;;;;;;;;;;;;;12.56;100.00;101441.84;5103976;28;20374;-33
2022/09/18 05:53:15;;;;;;;;;;;;;;;12.53;100.00;101434.88;5063319;28;19974;-33
2022/09/18 05:55:54;;;;;;;;;;;;;;;12.55;100.00;101440.16;5068200;28;19929;-34
2022/09/18 05:58:23;;;;;;;;;;;;;;;12.52;100.00;101452.78;5068304;28;19929;-33
2022/09/18 06:00:56;;;;;;;;;;;;;;;12.47;100.00;101452.00;5101224;28;19983;-33
2022/09/18 06:03:31;;;;;;;;;;;;;;;12.40;100.00;101446.75;5063132;28;20407;-33
2022/09/18 06:06:00;;;;;;;;;;;;;;;12.32;100.00;101441.81;5066471;28;20475;-33
2022/09/18 06:08:28;;;;;;;;;;;;;;;12.25;100.00;101425.38;5066659;28;20003;-35
2022/09/18 06:10:55;;;;;;;;;;;;;;;12.22;100.00;101427.94;5064478;28;19928;-33
2022/09/18 06:13:24;;;;;;;;;;;;;;;12.20;100.00;101419.84;5067764;28;19975;-33
2022/09/18 06:15:53;;;;;;;;;;;;;;;12.21;100.00;101412.28;5061883;28;19929;-34
2022/09/18 06:18:31;;;;;;;;;;;;;;;12.23;100.00;101416.44;5067762;28;19958;-35
2022/09/18 06:21:01;;;;;;;;;;;;;;;12.26;100.00;101409.41;5061886;28;20401;-34
2022/09/18 06:23:30;;;;;;;;;;;;;;;12.28;100.00;101404.38;5051759;28;20583;-34
2022/09/18 06:26:12;;;;;;;;;;;;;;;12.32;100.00;101413.84;5076316;28;19936;-37
2022/09/18 06:28:43;;;;;;;;;;;;;;;12.32;100.00;101413.84;5052538;28;19929;-36
2022/09/18 06:31:10;;;;;;;;;;;;;;;12.32;100.00;101413.84;5061941;28;20415;-39
2022/09/18 06:34:04;;;;;;;;;;;;;;;12.35;100.00;101418.84;5054387;28;19954;-33
2022/09/18 06:36:32;;;;;;;;;;;;;;;12.36;100.00;101423.31;5060741;28;19939;-35
2022/09/18 06:39:18;;;;;;;;;;;;;;;12.40;100.00;101410.38;5054874;28;19972;-35
2022/09/18 06:41:49;;;;;;;;;;;;;;;12.45;100.00;101415.91;5058548;28;19925;-33
2022/09/18 06:44:44;;;;;;;;;;;;;;;12.52;100.00;101415.56;5056863;28;20002;-33
2022/09/18 06:47:12;;;;;;;;;;;;;;;12.57;100.00;101415.50;5073589;28;19940;-32
2022/09/18 06:49:43;;;;;;;;;;;;;;;12.62;100.00;101413.44;5061004;28;19932;-38
2022/09/18 06:52:11;;;;;;;;;;;;;;;12.66;100.00;101420.13;5071271;28;19928;-34
2022/09/18 06:54:39;;;;;;;;;;;;;;;12.69;100.00;101430.75;5068283;28;19950;-34
2022/09/18 06:57:08;;;;;;;;;;;;;;;12.70;100.00;101438.00;5062829;28;19924;-33
2022/09/18 06:59:37;;;;;;;;;;;;;;;12.73;100.00;101448.63;5071147;28;19929;-33
2022/09/18 07:02:11;;;;;;;;;;;;;;;12.76;100.00;101449.97;5070130;28;20308;-34
2022/09/18 07:04:59;;;;;;;;;;;;;;;12.71;100.00;101444.44;5086492;28;20361;-35
2022/09/18 07:07:27;;;;;;;;;;;;;;;12.66;100.00;101436.09;5085635;28;19958;-33
2022/09/18 07:09:56;;;;;;;;;;;;;;;12.63;100.00;101431.91;5068458;28;20385;-34
2022/09/18 07:12:35;;;;;;;;;;;;;;;12.65;100.00;101434.44;5076517;28;20003;-33
2022/09/18 07:15:05;;;;;;;;;;;;;;;12.65;100.00;101432.47;5086521;28;20377;-34
2022/09/18 07:17:37;;;;;;;;;;;;;;;12.68;100.00;101429.06;5061803;28;20023;-33
2022/09/18 07:20:06;;;;;;;;;;;;;;;12.69;100.00;101419.53;5050593;28;20289;-32
2022/09/18 07:22:39;;;;;;;;;;;;;;;12.71;100.00;101419.25;5062651;28;20301;-32
2022/09/18 07:25:13;;;;;;;;;;;;;;;12.69;100.00;101418.69;5068243;28;20082;-34
2022/09/18 07:27:43;;;;;;;;;;;;;;;12.70;100.00;101411.97;5074974;28;19959;-34
2022/09/18 07:30:12;;;;;;;;;;;;;;;12.71;100.00;101411.66;5069168;28;19931;-33
2022/09/18 07:32:41;;;;;;;;;;;;;;;12.70;100.00;101407.19;5068943;28;20350;-33
2022/09/18 07:35:14;;;;;;;;;;;;;;;12.68;100.00;101412.25;5086288;28;19994;-33
2022/09/18 07:37:42;;;;;;;;;;;;;;;12.70;100.00;101414.78;5055195;28;20305;-34
2022/09/18 07:40:15;;;;;;;;;;;;;;;12.72;100.00;101412.50;5070322;28;19929;-35
2022/09/18 07:43:02;;;;;;;;;;;;;;;12.76;100.00;101408.81;5059996;28;19931;-33
2022/09/18 07:45:30;;;;;;;;;;;;;;;12.80;100.00;101419.38;5053356;28;19928;-34
2022/09/18 07:48:02;;;;;;;;;;;;;;;12.84;100.00;101423.25;5068535;28;20318;-34
2022/09/18 07:50:33;;;;;;;;;;;;;;;12.83;100.00;101430.81;5066935;28;19924;-33
2022/09/18 07:53:04;;;;;;;;;;;;;;;12.86;100.00;101418.19;5096196;28;20383;-33
2022/09/18 07:55:36;;;;;;;;;;;;;;;12.87;100.00;101419.84;5048776;28;19952;-33
2022/09/18 07:58:04;;;;;;;;;;;;;;;12.85;100.00;101417.34;5062351;28;19924;-34
2022/09/18 08:00:51;;;;;;;;;;;;;;;12.82;100.00;101405.91;5051314;28;20404;-36
2022/09/18 08:03:24;;;;;;;;;;;;;;;12.81;100.00;101421.06;5061395;28;19935;-35
2022/09/18 08:06:22;;;;;;;;;;;;;;;12.79;100.00;101404.53;5046293;28;20390;-35
2022/09/18 08:09:00;;;;;;;;;;;;;;;12.76;100.00;101425.63;5068898;28;19935;-33
2022/09/18 08:11:47;;;;;;;;;;;;;;;12.77;100.00;101421.69;5069613;28;19939;-36
2022/09/18 08:14:33;;;;;;;;;;;;;;;12.77;100.00;101424.47;5058588;28;19948;-34
2022/09/18 08:17:19;;;;;;;;;;;;;;;12.74;100.00;101422.28;5051832;28;20014;-33
2022/09/18 08:20:11;;;;;;;;;;;;;;;12.76;100.00;101414.41;5056926;28;19933;-34
2022/09/18 08:22:43;;;;;;;;;;;;;;;12.79;100.00;101414.94;5062285;28;19963;-34
2022/09/18 08:25:12;;;;;;;;;;;;;;;12.76;100.00;101420.00;5086338;28;20431;-33
2022/09/18 08:27:43;;;;;;;;;;;;;;;12.77;100.00;101418.88;5067915;28;19935;-34
2022/09/18 08:30:12;;;;;;;;;;;;;;;12.83;100.00;101419.63;5078951;28;19932;-33
2022/09/18 08:32:41;;;;;;;;;;;;;;;12.92;100.00;101411.41;5071384;28;20305;-32
2022/09/18 08:35:10;;;;;;;;;;;;;;;13.01;100.00;101406.75;5064345;28;19982;-34
2022/09/18 08:37:46;;;;;;;;;;;;;;;13.08;100.00;101412.84;5053937;28;19928;-35
2022/09/18 08:40:56;;;;;;;;;;;;;;;13.15;100.00;101416.13;5065036;28;19932;-33
2022/09/18 08:43:39;;;;;;;;;;;;;;;13.17;100.00;101416.66;5071271;28;19925;-33
2022/09/18 08:46:08;;;;;;;;;;;;;;;13.17;100.00;101416.66;5069597;28;20020;-33
2022/09/18 08:48:38;;;;;;;;;;;;;;;13.13;100.00;101418.38;4187272;28;10000847;-33
2022/09/18 08:51:18;;;;;;;;;;;;;;;13.06;100.00;101429.94;5051096;28;19935;-35
2022/09/18 08:53:50;;;;;;;;;;;;;;;13.02;100.00;101431.69;5069715;28;19978;-33
2022/09/18 08:56:46;;;;;;;;;;;;;;;13.01;100.00;101431.97;5055224;28;19929;-33
2022/09/18 08:59:33;;;;;;;;;;;;;;;13.02;100.00;101428.88;5045373;28;20367;-35
2022/09/18 09:02:12;;;;;;;;;;;;;;;13.04;100.00;101425.78;5053957;28;20011;-34
2022/09/18 09:04:40;;;;;;;;;;;;;;;13.08;100.00;101432.44;5046071;28;19929;-34
2022/09/18 09:07:15;;;;;;;;;;;;;;;13.13;100.00;101428.75;5054579;28;19929;-34
2022/09/18 09:09:51;;;;;;;;;;;;;;;13.16;100.00;101428.19;5045954;28;19995;-34
2022/09/18 09:12:25;;;;;;;;;;;;;;;13.20;100.00;101430.06;5053566;28;19924;-32
2022/09/18 09:15:06;;;;;;;;;;;;;;;13.21;100.00;101428.09;5058364;28;19935;-36
2022/09/18 09:17:38;;;;;;;;;;;;;;;13.26;100.00;101442.84;5053861;28;19928;-33
2022/09/18 09:20:19;;;;;;;;;;;;;;;13.31;100.00;101447.56;5045588;28;19963;-33
2022/09/18 09:22:52;;;;;;;;;;;;;;;13.32;100.00;101436.06;5056902;28;19970;-33
2022/09/18 09:25:23;;;;;;;;;;;;;;;13.35;100.00;101437.41;5060661;28;20401;-36
2022/09/18 09:28:12;;;;;;;;;;;;;;;13.38;100.00;101440.44;5087962;28;19981;-34
2022/09/18 09:31:00;;;;;;;;;;;;;;;13.45;100.00;101440.03;5067473;28;20034;-33
2022/09/18 09:33:59;;;;;;;;;;;;;;;13.53;100.00;101444.16;4998170;28;20354;-33
2022/09/18 09:36:55;;;;;;;;;;;;;;;13.60;100.00;101444.56;5068812;28;19924;-33
2022/09/18 09:39:27;;;;;;;;;;;;;;;13.64;100.00;101448.44;5070217;28;19928;-34
2022/09/18 09:41:57;;;;;;;;;;;;;;;13.67;100.00;101445.03;5087856;28;19932;-35
2022/09/18 09:44:30;;;;;;;;;;;;;;;13.71;100.00;101443.28;5088601;28;19963;-38
2022/09/18 09:47:02;;;;;;;;;;;;;;;13.72;100.00;101434.56;5087721;28;19986;-33
2022/09/18 09:49:33;;;;;;;;;;;;;;;13.77;100.00;101439.25;5071957;28;20305;-34
2022/09/18 09:52:05;;;;;;;;;;;;;;;13.82;100.00;101446.72;5087880;28;19928;-34
2022/09/18 09:54:40;;;;;;;;;;;;;;;13.83;100.00;101438.00;5071035;28;19940;-34
2022/09/18 09:57:16;;;;;;;;;;;;;;;13.85;100.00;101427.31;5088516;28;19931;-35
2022/09/18 09:59:51;;;;;;;;;;;;;;;13.92;100.00;101432.53;5071234;28;19931;-33
2022/09/18 10:02:36;;;;;;;;;;;;;;;13.95;100.00;101426.31;5069843;28;20362;-33
2022/09/18 10:05:12;;;;;;;;;;;;;;;14.00;100.00;101421.44;5088545;28;19960;-34
2022/09/18 10:07:45;;;;;;;;;;;;;;;14.06;100.00;101423.00;5087161;28;19925;-34
2022/09/18 10:10:17;;;;;;;;;;;;;;;14.10;100.00;101431.66;5071672;28;20361;-33
2022/09/18 10:12:50;;;;;;;;;;;;;;;14.12;100.00;101424.59;5058774;28;19964;-34
2022/09/18 10:15:20;;;;;;;;;;;;;;;14.18;100.00;101427.31;5087098;28;19954;-34
2022/09/18 10:17:49;;;;;;;;;;;;;;;14.27;100.00;101420.66;5075296;28;19924;-34
2022/09/18 10:20:18;;;;;;;;;;;;;;;14.35;100.00;101436.78;5088217;28;19935;-33
2022/09/18 10:22:46;;;;;;;;;;;;;;;14.44;100.00;101436.91;5065955;28;20306;-34
2022/09/18 10:25:21;;;;;;;;;;;;;;;14.50;100.00;101416.00;5051126;28;20340;-39
2022/09/18 10:27:48;;;;;;;;;;;;;;;14.53;100.00;101417.38;5062305;28;19924;-34
2022/09/18 10:30:17;;;;;;;;;;;;;;;14.58;100.00;101428.50;5074579;28;19935;-34
2022/09/18 10:32:51;;;;;;;;;;;;;;;14.60;100.00;101432.63;5064238;28;19935;-34
2022/09/18 10:35:32;;;;;;;;;;;;;;;14.62;100.00;101416.31;5050865;28;20335;-33
2022/09/18 10:38:01;;;;;;;;;;;;;;;14.61;100.00;101425.88;5059010;28;20019;-33
2022/09/18 10:40:38;;;;;;;;;;;;;;;14.59;100.00;101414.13;5050154;28;19983;-34
2022/09/18 10:43:16;;;;;;;;;;;;;;;14.56;100.00;101423.19;5061769;28;19951;-34
2022/09/18 10:45:51;;;;;;;;;;;;;;;14.57;100.00;101438.91;5066952;28;19936;-33
2022/09/18 10:48:27;;;;;;;;;;;;;;;14.54;100.00;101419.03;5058739;28;20106;-35
2022/09/18 10:50:57;;;;;;;;;;;;;;;14.53;99.94;101420.19;5048438;28;19929;-32
2022/09/18 10:53:32;;;;;;;;;;;;;;;14.57;100.00;101421.22;5075728;28;19924;-32
2022/09/18 10:56:15;;;;;;;;;;;;;;;14.59;98.99;101416.13;5066850;28;20360;-33
2022/09/18 10:58:43;;;;;;;;;;;;;;;14.59;98.21;101418.94;5058630;28;19929;-35
2022/09/18 11:01:12;;;;;;;;;;;;;;;14.59;98.79;101428.16;5051020;28;19982;-34
2022/09/18 11:03:46;;;;;;;;;;;;;;;14.49;99.75;101434.00;5058880;28;19982;-34
2022/09/18 11:06:24;;;;;;;;;;;;;;;14.38;100.00;101455.81;5050424;28;20340;-34
2022/09/18 11:08:55;;;;;;;;;;;;;;;14.31;100.00;101443.31;5091883;28;19964;-33
2022/09/18 11:11:26;;;;;;;;;;;;;;;14.17;100.00;101434.88;5065309;28;19936;-33
2022/09/18 11:13:57;;;;;;;;;;;;;;;14.03;100.00;101434.00;5069145;28;19928;-34
2022/09/18 11:16:29;;;;;;;;;;;;;;;13.91;100.00;101437.31;5066347;28;19936;-34
2022/09/18 11:19:07;;;;;;;;;;;;;;;13.79;100.00;101436.94;5088849;28;20343;-35
2022/09/18 11:21:44;;;;;;;;;;;;;;;13.68;100.00;101446.69;5068688;28;20024;-34
2022/09/18 11:24:19;;;;;;;;;;;;;;;13.58;100.00;101453.31;5085573;28;20462;-33
2022/09/18 11:26:53;;;;;;;;;;;;;;;13.51;100.00;101438.00;5068246;28;19963;-33
2022/09/18 11:29:27;;;;;;;;;;;;;;;13.44;100.00;101439.22;5085049;28;19924;-34
2022/09/18 11:31:57;;;;;;;;;;;;;;;13.42;100.00;101460.28;5069129;28;19975;-34
2022/09/18 11:34:30;;;;;;;;;;;;;;;13.37;100.00;101468.78;5066068;28;19924;-33
2022/09/18 11:36:59;;;;;;;;;;;;;;;13.29;100.00;101466.66;5070590;28;19932;-35
2022/09/18 11:39:29;;;;;;;;;;;;;;;13.20;100.00;101463.69;5053292;28;20393;-34
2022/09/18 11:42:01;;;;;;;;;;;;;;;13.11;100.00;101469.13;5055492;28;19935;-35
2022/09/18 11:44:31;;;;;;;;;;;;;;;13.04;100.00;101465.84;5052670;28;19933;-34
2022/09/18 11:47:19;;;;;;;;;;;;;;;13.00;100.00;101452.72;5068747;28;20364;-35
2022/09/18 11:49:49;;;;;;;;;;;;;;;12.96;100.00;101448.88;5053263;28;19936;-35
2022/09/18 11:52:20;;;;;;;;;;;;;;;12.93;100.00;101460.69;5085471;28;19933;-34
2022/09/18 11:55:00;;;;;;;;;;;;;;;12.87;100.00;101462.72;5062791;28;19925;-33
2022/09/18 11:57:32;;;;;;;;;;;;;;;12.83;100.00;101467.25;5063469;28;19982;-33
2022/09/18 12:00:07;;;;;;;;;;;;;;;12.77;100.00;101469.28;5064271;28;19925;-34
2022/09/18 12:02:46;;;;;;;;;;;;;;;12.70;100.00;101462.38;5065614;28;20417;-33
2022/09/18 12:05:19;;;;;;;;;;;;;;;12.69;100.00;101460.69;5072236;28;19944;-33
2022/09/18 12:07:58;;;;;;;;;;;;;;;12.67;100.00;101452.59;5088390;28;19939;-34
2022/09/18 12:10:33;;;;;;;;;;;;;;;12.64;100.00;101467.19;5089569;28;19931;-34
2022/09/18 12:13:13;;;;;;;;;;;;;;;12.59;100.00;101460.84;5072517;28;19939;-33
2022/09/18 12:15:42;;;;;;;;;;;;;;;12.55;100.00;101474.59;5088234;28;19948;-35
2022/09/18 12:18:13;;;;;;;;;;;;;;;12.53;100.00;101464.81;5072475;28;20365;-34
2022/09/18 12:20:42;;;;;;;;;;;;;;;12.55;100.00;101466.19;5068887;28;20009;-33
2022/09/18 12:23:14;;;;;;;;;;;;;;;12.61;100.00;101469.75;5070852;28;19925;-35
2022/09/18 12:25:44;;;;;;;;;;;;;;;12.66;100.00;101464.94;5070720;28;20336;-33
2022/09/18 12:28:42;;;;;;;;;;;;;;;12.66;100.00;101467.72;5059547;28;19929;-35
2022/09/18 12:31:15;;;;;;;;;;;;;;;12.63;100.00;101457.13;5059839;28;20295;-35
2022/09/18 12:33:48;;;;;;;;;;;;;;;12.60;100.00;101462.47;5061073;28;19924;-34
2022/09/18 12:36:32;;;;;;;;;;;;;;;12.56;100.00;101458.63;5058371;28;19925;-34
2022/09/18 12:39:08;;;;;;;;;;;;;;;12.59;100.00;101463.63;5059821;28;20246;-35
2022/09/18 12:41:47;;;;;;;;;;;;;;;12.63;100.00;101471.13;5061037;28;19932;-34
2022/09/18 12:44:29;;;;;;;;;;;;;;;12.67;100.00;101465.75;5058352;28;19960;-33
2022/09/18 12:47:05;;;;;;;;;;;;;;;12.74;100.00;101463.44;5061639;28;20035;-33
2022/09/18 12:49:41;;;;;;;;;;;;;;;12.79;100.00;101466.16;5066295;28;20324;-34
2022/09/18 12:52:14;;;;;;;;;;;;;;;12.83;100.00;101469.19;5066855;28;19978;-34
2022/09/18 12:54:50;;;;;;;;;;;;;;;12.87;100.00;101461.88;5070606;28;20303;-34
2022/09/18 12:57:29;;;;;;;;;;;;;;;12.82;100.00;101461.94;5065968;28;20271;-33
2022/09/18 13:00:01;;;;;;;;;;;;;;;12.78;100.00;101458.94;5070862;28;19978;-33
2022/09/18 13:02:39;;;;;;;;;;;;;;;12.73;100.00;101467.38;5066473;28;20336;-34